createdAt,value
2022-11-12T00:01:42.703Z,28.55
2022-11-12T00:04:33.917Z,25.33
2022-11-12T00:07:25.633Z,22.20
2022-11-12T00:10:17.020Z,27.52
2022-11-12T00:13:08.188Z,18.35
2022-11-12T00:15:59.161Z,29.27
2022-11-12T00:18:50.914Z,38.83
2022-11-12T00:21:41.815Z,25.13
2022-11-12T00:24:33.090Z,27.55
2022-11-12T00:27:23.839Z,26.88
2022-11-12T00:30:15.087Z,28.20
2022-11-12T00:33:06.290Z,24.92
2022-11-12T00:35:59.501Z,25.27
2022-11-12T00:38:50.230Z,32.80
2022-11-12T00:41:42.157Z,21.25
2022-11-12T00:44:33.286Z,24.60
2022-11-12T00:47:24.437Z,21.73
2022-11-12T00:50:16.444Z,21.83
2022-11-12T00:53:07.814Z,19.63
2022-11-12T00:56:05.545Z,21.83
2022-11-12T00:58:58.039Z,20.88
2022-11-12T01:01:49.122Z,18.45
2022-11-12T01:04:40.510Z,27.73
2022-11-12T01:07:31.395Z,21.85
2022-11-12T01:10:22.807Z,22.15
2022-11-12T01:13:13.678Z,26.67
2022-11-12T01:16:08.530Z,31.20
2022-11-12T01:19:00.422Z,18.02
2022-11-12T01:21:51.806Z,14.05
2022-11-12T01:50:24.956Z,24.77
2022-11-12T01:53:15.988Z,17.05
2022-11-12T01:56:07.919Z,18.40
2022-11-12T02:07:33.247Z,15.13
2022-11-12T02:10:24.734Z,12.35
2022-11-12T02:13:35.111Z,16.27
2022-11-12T02:16:28.796Z,15.80
2022-11-12T02:19:20.685Z,17.10
2022-11-12T02:22:11.583Z,17.67
2022-11-12T02:25:02.772Z,12.57
2022-11-12T02:27:55.252Z,12.03
2022-11-12T02:30:47.876Z,15.23
2022-11-12T02:33:38.806Z,27.70
2022-11-12T02:36:30.359Z,28.13
2022-11-12T02:39:21.162Z,20.60
2022-11-12T02:42:12.428Z,31.65
2022-11-12T02:45:03.943Z,25.40
2022-11-12T02:47:55.522Z,18.08
2022-11-12T02:50:47.597Z,17.45
2022-11-12T02:53:38.957Z,17.63
2022-11-12T02:56:30.075Z,27.38
2022-11-12T02:59:21.557Z,14.07
2022-11-12T03:02:12.493Z,16.25
2022-11-12T03:05:03.714Z,10.00
2022-11-12T03:07:58.836Z,14.05
2022-11-12T03:10:50.095Z,13.70
2022-11-12T03:13:41.004Z,14.90
2022-11-12T03:16:32.580Z,19.33
2022-11-12T03:19:23.584Z,11.30
2022-11-12T03:22:14.830Z,10.98
2022-11-12T03:25:06.730Z,10.13
2022-11-12T03:28:02.507Z,9.95
2022-11-12T03:30:57.207Z,16.08
2022-11-12T03:33:48.294Z,10.15
2022-11-12T03:36:39.206Z,14.63
2022-11-12T03:39:30.822Z,8.70
2022-11-12T03:42:21.739Z,15.95
2022-11-12T03:45:12.911Z,20.35
2022-11-12T03:48:03.974Z,14.87
2022-11-12T03:50:59.262Z,14.48
2022-11-12T03:53:50.411Z,7.10
2022-11-12T03:56:41.647Z,9.55
2022-11-12T03:59:32.488Z,7.72
2022-11-12T04:02:25.854Z,11.55
2022-11-12T04:05:35.585Z,10.60
2022-11-12T04:08:38.919Z,10.07
2022-11-12T04:11:29.828Z,7.88
2022-11-12T04:14:21.601Z,14.98
2022-11-12T04:17:31.114Z,9.52
2022-11-12T04:20:41.207Z,11.10
2022-11-12T04:23:32.269Z,12.00
2022-11-12T04:26:26.248Z,8.63
2022-11-12T04:29:37.551Z,18.00
2022-11-12T04:32:30.010Z,6.13
2022-11-12T04:35:21.656Z,12.13
2022-11-12T04:38:13.213Z,8.90
2022-11-12T04:41:22.733Z,15.48
2022-11-12T05:45:03.359Z,6.63
2022-11-12T05:47:54.475Z,14.90
2022-11-12T05:51:11.311Z,13.15
2022-11-12T05:53:56.643Z,16.87
2022-11-12T05:56:47.544Z,13.23
2022-11-12T05:59:38.626Z,12.43
2022-11-12T06:02:29.440Z,13.45
2022-11-12T06:05:21.039Z,26.27
2022-11-12T06:08:11.898Z,11.82
2022-11-12T06:11:03.233Z,14.77
2022-11-12T06:13:53.986Z,13.57
2022-11-12T06:16:45.343Z,12.57
2022-11-12T06:19:36.582Z,14.98
2022-11-12T06:22:28.280Z,21.58
2022-11-12T06:25:19.283Z,14.87
2022-11-12T06:28:10.512Z,27.08
2022-11-12T06:31:01.399Z,56.85
2022-11-12T06:33:52.758Z,70.38
2022-11-12T06:39:34.969Z,26.98
2022-11-12T06:42:25.934Z,12.38
2022-11-12T06:45:17.249Z,11.35
2022-11-12T06:48:08.287Z,9.97
2022-11-12T06:51:05.768Z,11.25
2022-11-12T06:53:57.000Z,12.55
2022-11-12T06:56:48.303Z,13.98
2022-11-12T06:59:39.215Z,16.20
2022-11-12T07:02:30.474Z,19.67
2022-11-12T07:05:21.370Z,13.40
2022-11-12T07:08:12.751Z,34.95
2022-11-12T07:11:03.721Z,11.57
2022-11-12T07:13:55.046Z,18.75
2022-11-12T07:16:46.119Z,15.20
2022-11-12T07:19:37.200Z,13.40
2022-11-12T07:22:28.063Z,13.48
2022-11-12T07:25:19.434Z,15.60
2022-11-12T07:28:10.286Z,13.07
2022-11-12T07:31:03.301Z,16.17
2022-11-12T07:33:54.701Z,7.57
2022-11-12T07:36:46.119Z,16.17
2022-11-12T07:39:36.782Z,16.58
2022-11-12T07:42:27.896Z,13.15
2022-11-12T07:45:18.701Z,8.10
2022-11-12T07:48:09.998Z,10.57
2022-11-12T07:51:04.891Z,14.60
2022-11-12T07:53:59.523Z,11.40
2022-11-12T07:56:50.513Z,16.85
2022-11-12T07:59:45.877Z,10.38
2022-11-12T08:02:37.556Z,16.42
2022-11-12T08:05:28.707Z,11.17
2022-11-12T08:08:19.467Z,13.77
2022-11-12T08:11:10.943Z,20.38
2022-11-12T08:14:02.004Z,29.30
2022-11-12T08:16:53.120Z,29.07
2022-11-12T08:19:43.921Z,38.17
2022-11-12T08:22:35.123Z,32.43
2022-11-12T08:25:26.343Z,24.83
2022-11-12T08:28:17.904Z,13.15
2022-11-12T08:31:19.362Z,17.00
2022-11-12T08:34:17.262Z,9.05
2022-11-12T08:37:11.096Z,9.60
2022-11-12T08:40:02.261Z,9.67
2022-11-12T08:43:03.237Z,6.72
2022-11-12T08:45:54.492Z,6.18
2022-11-12T08:48:45.430Z,6.55
2022-11-12T08:51:36.774Z,12.50
2022-11-12T08:54:27.686Z,11.57
2022-11-12T08:57:18.892Z,5.10
2022-11-12T09:00:10.731Z,3.58
2022-11-12T09:03:05.195Z,8.38
2022-11-12T09:05:56.377Z,4.82
2022-11-12T09:08:47.933Z,5.88
2022-11-12T09:11:38.925Z,2.20
2022-11-12T09:14:30.317Z,10.02
2022-11-12T09:17:21.419Z,7.30
2022-11-12T09:20:12.752Z,3.92
2022-11-12T09:23:06.376Z,3.88
2022-11-12T09:25:58.337Z,4.32
2022-11-12T09:28:49.112Z,7.23
2022-11-12T09:31:41.158Z,2.65
2022-11-12T09:34:32.492Z,5.27
2022-11-12T09:37:27.134Z,3.88
2022-11-12T09:40:19.636Z,6.00
2022-11-12T09:43:16.735Z,4.38
2022-11-12T09:46:28.066Z,4.38
2022-11-12T09:49:19.840Z,12.45
2022-11-12T09:52:21.720Z,6.60
2022-11-12T09:55:13.022Z,10.35
2022-11-12T09:58:06.825Z,6.32
2022-11-12T10:01:01.383Z,5.45
2022-11-12T10:04:14.467Z,7.07
2022-11-12T10:07:15.158Z,8.15
2022-11-12T10:10:11.020Z,6.68
2022-11-12T10:13:17.757Z,8.43
2022-11-12T10:16:36.682Z,8.02
2022-11-12T10:19:49.960Z,3.78
2022-11-12T10:22:46.302Z,4.93
2022-11-12T10:25:37.884Z,5.45
2022-11-12T10:28:38.419Z,7.57
2022-11-12T10:31:30.012Z,5.13
2022-11-12T10:34:29.184Z,6.53
2022-11-12T10:37:23.785Z,4.05
2022-11-12T10:40:21.134Z,4.30
2022-11-12T10:43:18.237Z,5.00
2022-11-12T10:46:28.784Z,5.68
2022-11-12T10:49:20.000Z,10.40
2022-11-12T10:52:24.499Z,5.43
2022-11-12T10:55:20.340Z,4.65
2022-11-12T10:58:11.637Z,3.90
2022-11-12T11:01:04.745Z,5.88
2022-11-12T11:03:58.846Z,4.90
2022-11-12T11:06:58.061Z,4.97
2022-11-12T11:09:56.412Z,6.40
2022-11-12T11:12:47.625Z,8.93
2022-11-12T11:15:38.976Z,3.53
2022-11-12T11:21:24.791Z,5.60
2022-11-12T11:24:19.277Z,4.32
2022-11-12T11:27:10.260Z,3.25
2022-11-12T11:30:09.374Z,3.67
2022-11-12T11:33:05.676Z,6.75
2022-11-12T11:36:18.208Z,11.60
2022-11-12T11:39:12.135Z,8.20
2022-11-12T11:42:22.240Z,7.07
2022-11-12T11:45:23.684Z,5.47
2022-11-12T11:48:33.539Z,4.53
2022-11-12T11:51:26.152Z,6.65
2022-11-12T11:54:20.979Z,4.95
2022-11-12T11:57:15.677Z,2.53
2022-11-12T12:00:10.385Z,6.88
2022-11-12T12:03:07.573Z,6.53
2022-11-12T12:06:17.943Z,3.05
2022-11-12T12:09:12.324Z,7.93
2022-11-12T12:12:27.252Z,6.47
2022-11-12T12:15:18.506Z,11.15
2022-11-12T12:18:35.058Z,9.45
2022-11-12T12:21:28.896Z,3.58
2022-11-12T12:24:23.735Z,7.22
2022-11-12T12:27:17.283Z,4.13
2022-11-12T12:30:18.871Z,5.45
2022-11-12T12:33:09.727Z,3.72
2022-11-12T12:36:10.006Z,5.72
2022-11-12T12:39:10.397Z,3.63
2022-11-12T12:42:05.794Z,3.58
2022-11-12T12:45:06.064Z,5.22
2022-11-12T12:47:57.750Z,3.42
2022-11-12T12:50:50.448Z,3.28
2022-11-12T12:53:41.943Z,7.47
2022-11-12T12:56:32.929Z,3.93
2022-11-12T12:59:24.777Z,6.07
2022-11-12T13:05:22.342Z,4.43
2022-11-12T13:08:14.450Z,7.07
2022-11-12T13:11:05.966Z,3.85
2022-11-12T13:13:56.907Z,3.43
2022-11-12T13:16:54.167Z,5.57
2022-11-12T13:19:44.841Z,3.95
2022-11-12T13:22:38.940Z,4.93
2022-11-12T13:25:31.163Z,7.05
2022-11-12T13:28:22.490Z,6.80
2022-11-12T13:31:29.413Z,8.48
2022-11-12T13:34:29.518Z,5.88
2022-11-12T13:37:21.358Z,8.88
2022-11-12T13:40:15.008Z,5.18
2022-11-12T13:43:12.434Z,8.68
2022-11-12T13:46:12.920Z,4.20
2022-11-12T13:49:07.273Z,3.90
2022-11-12T13:51:59.482Z,5.32
2022-11-12T13:55:02.054Z,4.28
2022-11-12T13:57:54.998Z,10.35
2022-11-12T14:01:00.014Z,6.72
2022-11-12T14:03:52.422Z,3.95
2022-11-12T14:09:34.601Z,6.13
2022-11-12T14:12:25.862Z,12.40
2022-11-12T14:15:17.101Z,8.05
2022-11-12T14:18:14.454Z,5.43
2022-11-12T14:21:07.196Z,3.08
2022-11-12T14:23:58.457Z,2.83
2022-11-12T14:26:49.879Z,3.90
2022-11-12T14:29:43.695Z,3.88
2022-11-12T14:32:36.202Z,3.75
2022-11-12T14:38:27.554Z,8.35
2022-11-12T14:41:29.216Z,5.85
2022-11-12T14:44:22.171Z,3.83
2022-11-12T14:47:13.136Z,4.50
2022-11-12T14:50:04.514Z,8.63
2022-11-12T14:53:25.193Z,4.68
2022-11-12T14:56:23.076Z,3.80
2022-11-12T14:59:14.937Z,8.05
2022-11-12T15:05:24.034Z,13.70
2022-11-12T15:08:28.120Z,9.07
2022-11-12T15:11:31.430Z,13.82
2022-11-12T15:14:27.279Z,12.77
2022-11-12T15:17:37.444Z,14.55
2022-11-12T15:20:28.683Z,15.52
2022-11-12T15:23:20.236Z,19.20
2022-11-12T15:26:14.905Z,15.43
2022-11-12T15:29:12.028Z,13.52
2022-11-12T15:32:14.018Z,22.15
2022-11-12T15:35:05.252Z,23.65
2022-11-12T15:37:56.524Z,30.98
2022-11-12T15:40:57.146Z,16.13
2022-11-12T15:43:49.042Z,21.50
2022-11-12T15:46:40.195Z,33.57
2022-11-12T15:49:31.792Z,38.47
2022-11-12T15:52:23.412Z,32.22
2022-11-12T15:55:15.435Z,38.50
2022-11-12T15:58:18.114Z,42.42
2022-11-12T16:01:12.026Z,23.67
2022-11-12T16:04:03.179Z,24.25
2022-11-12T16:06:54.603Z,19.30
2022-11-12T16:09:45.391Z,22.35
2022-11-12T16:12:36.584Z,30.00
2022-11-12T16:15:27.578Z,25.85
2022-11-12T16:18:19.089Z,46.47
2022-11-12T16:21:10.047Z,70.50
2022-11-12T16:24:01.405Z,40.00
2022-11-12T16:26:52.525Z,47.85
2022-11-12T16:29:43.855Z,43.75
2022-11-12T16:32:34.824Z,51.70
2022-11-12T16:35:30.159Z,49.20
2022-11-12T16:38:21.793Z,36.75
2022-11-12T16:44:03.815Z,34.90
2022-11-12T16:46:55.141Z,34.15
2022-11-12T16:49:46.162Z,33.83
2022-11-12T16:52:37.823Z,46.42
2022-11-12T16:55:28.752Z,57.90
2022-11-12T16:58:19.963Z,46.55
2022-11-12T17:01:14.451Z,57.25
2022-11-12T17:04:05.610Z,41.35
2022-11-12T17:06:56.454Z,53.10
2022-11-12T17:09:48.248Z,61.90
2022-11-12T17:12:39.357Z,56.08
2022-11-12T17:15:30.778Z,60.90
2022-11-12T17:18:21.678Z,85.80
2022-11-12T17:21:14.402Z,144.75
2022-11-12T17:24:05.327Z,457.75
2022-11-12T17:26:57.819Z,320.23
2022-11-12T17:29:48.983Z,159.48
2022-11-12T17:32:40.503Z,221.43
2022-11-12T17:35:33.232Z,135.27
2022-11-12T17:38:24.521Z,95.50
2022-11-12T17:41:15.814Z,111.13
2022-11-12T17:46:58.499Z,161.77
2022-11-12T17:49:49.876Z,152.20
2022-11-12T17:52:40.678Z,137.23
2022-11-12T17:55:31.960Z,98.03
2022-11-12T17:58:22.855Z,115.10
2022-11-12T18:01:21.731Z,95.13
2022-11-12T18:04:13.137Z,84.97
2022-11-12T18:07:04.492Z,84.90
2022-11-12T18:09:55.858Z,96.75
2022-11-12T18:12:46.949Z,69.17
2022-11-12T18:15:38.273Z,80.78
2022-11-12T18:18:30.150Z,68.30
2022-11-12T18:21:21.039Z,71.22
2022-11-12T18:24:13.731Z,63.05
2022-11-12T18:27:04.810Z,92.15
2022-11-12T18:29:56.071Z,81.80
2022-11-12T18:32:46.843Z,69.88
2022-11-12T18:35:38.128Z,78.67
2022-11-12T18:38:29.612Z,98.35
2022-11-12T18:41:27.201Z,102.18
2022-11-12T18:44:21.981Z,93.47
2022-11-12T18:47:15.980Z,63.58
2022-11-12T18:50:08.801Z,62.58
2022-11-12T18:53:00.540Z,78.32
2022-11-12T18:55:51.733Z,64.97
2022-11-12T18:58:43.044Z,74.60
2022-11-12T19:01:34.759Z,67.05
2022-11-12T19:04:26.578Z,55.35
2022-11-12T19:07:17.814Z,86.93
2022-11-12T19:10:14.588Z,93.03
2022-11-12T19:13:07.004Z,82.55
2022-11-12T19:18:49.620Z,90.43
2022-11-12T19:21:41.236Z,106.78
2022-11-12T19:24:32.470Z,88.60
2022-11-12T19:27:23.696Z,88.97
2022-11-12T19:30:14.632Z,92.22
2022-11-12T19:33:06.020Z,145.55
2022-11-12T19:35:56.874Z,192.07
2022-11-12T19:38:48.442Z,113.32
2022-11-12T19:41:39.353Z,124.72
2022-11-12T19:44:30.703Z,100.25
2022-11-12T19:47:21.724Z,71.97
2022-11-12T19:50:13.117Z,61.30
2022-11-12T19:53:04.839Z,66.40
2022-11-12T19:55:59.641Z,67.88
2022-11-12T19:58:50.617Z,60.72
2022-11-12T20:01:42.358Z,90.20
2022-11-12T20:04:33.305Z,81.03
2022-11-12T20:07:25.498Z,65.15
2022-11-12T20:10:20.524Z,77.20
2022-11-12T20:13:11.556Z,56.00
2022-11-12T20:16:09.149Z,49.30
2022-11-12T20:19:01.801Z,55.38
2022-11-12T20:21:52.769Z,63.17
2022-11-12T20:24:44.101Z,75.07
2022-11-12T20:27:34.965Z,62.85
2022-11-12T20:30:26.295Z,71.53
2022-11-12T20:33:17.523Z,90.83
2022-11-12T20:36:10.480Z,104.25
2022-11-12T20:39:02.495Z,111.97
2022-11-12T20:41:54.108Z,113.97
2022-11-12T20:44:44.787Z,118.78
2022-11-12T20:47:35.860Z,107.67
2022-11-12T20:50:26.839Z,107.05
2022-11-12T20:53:17.972Z,97.18
2022-11-12T20:56:11.057Z,81.75
2022-11-12T20:59:02.125Z,121.70
2022-11-12T21:01:52.842Z,99.28
2022-11-12T21:04:44.341Z,108.65
2022-11-12T21:07:35.510Z,77.93
2022-11-12T21:10:27.358Z,73.72
2022-11-12T21:13:18.613Z,71.47
2022-11-12T21:16:10.473Z,89.57
2022-11-12T21:19:02.063Z,62.75
2022-11-12T21:21:53.761Z,75.65
2022-11-12T21:24:44.792Z,88.95
2022-11-12T21:27:36.054Z,56.28
2022-11-12T21:30:27.058Z,67.20
2022-11-12T21:33:18.412Z,46.53
2022-11-12T21:36:15.938Z,44.22
2022-11-12T21:39:08.887Z,46.63
2022-11-12T21:41:59.946Z,55.90
2022-11-12T21:44:51.328Z,47.22
2022-11-12T21:47:43.226Z,53.40
2022-11-12T21:50:34.863Z,48.28
2022-11-12T21:53:29.886Z,50.60
2022-11-12T21:56:22.925Z,38.25
2022-11-12T21:59:15.391Z,35.22
2022-11-12T22:02:07.153Z,45.95
2022-11-12T22:04:57.903Z,47.30
2022-11-12T22:07:49.038Z,43.13
2022-11-12T22:10:39.898Z,29.77
2022-11-12T22:13:31.431Z,17.27
2022-11-12T22:16:23.221Z,40.87
2022-11-12T22:19:16.288Z,34.65
2022-11-12T22:22:07.273Z,31.40
2022-11-12T22:24:58.463Z,23.90
2022-11-12T22:27:49.286Z,27.80
2022-11-12T22:30:40.356Z,27.97
2022-11-12T22:33:31.297Z,28.40
2022-11-12T22:36:23.615Z,29.60
2022-11-12T22:39:14.472Z,25.17
2022-11-12T22:42:06.267Z,20.50
2022-11-12T22:44:57.386Z,17.63
2022-11-12T22:47:48.618Z,24.90
2022-11-12T22:50:39.503Z,28.35
2022-11-12T22:53:31.164Z,24.48
2022-11-12T22:56:23.132Z,24.83
2022-11-12T22:59:14.744Z,26.80
2022-11-12T23:02:08.198Z,21.55
2022-11-12T23:04:59.424Z,24.25
2022-11-12T23:07:50.704Z,31.52
2022-11-12T23:10:45.843Z,28.20
2022-11-12T23:13:37.415Z,23.25
2022-11-12T23:16:32.525Z,34.17
2022-11-12T23:19:24.131Z,28.30
2022-11-12T23:22:15.342Z,30.65
2022-11-12T23:25:06.404Z,23.83
2022-11-12T23:27:57.775Z,24.60
2022-11-12T23:30:50.196Z,33.53
2022-11-12T23:33:46.138Z,27.02
2022-11-12T23:36:36.990Z,28.40
2022-11-12T23:39:28.050Z,24.97
2022-11-12T23:42:18.919Z,32.55
2022-11-12T23:45:10.349Z,28.63
2022-11-12T23:48:01.473Z,37.40
2022-11-12T23:50:59.900Z,45.17
2022-11-12T23:53:51.387Z,49.60
2022-11-12T23:56:42.791Z,37.35
2022-11-12T23:59:33.584Z,27.85
